Time;durP1;ratioP1;P1;durP2;ratioP2;P2;SDS_P1;SDS_P2;PMS_P1;PMS_P2;Temp;Humidity;BMP_temperature;BMP_pressure;BME280_temperature;BME280_humidity;BME280_pressure;Samples;Min_cycle;Max_cycle;Signal;HPM_P1;HPM_P2
2021/08/17 00:00:27;;;;;;;1.35;0.65;;;;;;;;;;5047818;28;20080;-70
2021/08/17 00:02:53;;;;;;;1.42;0.50;;;;;;;;;;5053811;28;20056;-70
2021/08/17 00:05:20;;;;;;;1.02;0.50;;;;;;;;;;5035963;28;20531;-70
2021/08/17 00:07:46;;;;;;;2.63;0.60;;;;;;;;;;5037334;28;20072;-70
2021/08/17 00:10:12;;;;;;;1.30;0.70;;;;;;;;;;5039696;28;20453;-70
2021/08/17 00:12:39;;;;;;;2.28;0.80;;;;;;;;;;5044651;28;20116;-70
2021/08/17 00:15:08;;;;;;;0.98;0.60;;;;;;;;;;5043348;28;20069;-70
2021/08/17 00:17:34;;;;;;;1.33;0.50;;;;;;;;;;5031186;28;20053;-70
2021/08/17 00:20:01;;;;;;;1.17;0.63;;;;;;;;;;5048272;28;20053;-70
2021/08/17 00:22:28;;;;;;;1.00;0.60;;;;;;;;;;5050547;28;20068;-70
2021/08/17 00:24:55;;;;;;;1.88;0.60;;;;;;;;;;5052561;28;20637;-70
2021/08/17 00:27:21;;;;;;;1.08;0.63;;;;;;;;;;5048035;28;20138;-70
2021/08/17 00:29:47;;;;;;;1.40;0.60;;;;;;;;;;5031773;28;20516;-70
2021/08/17 00:32:15;;;;;;;1.92;0.70;;;;;;;;;;5044508;28;20076;-70
2021/08/17 00:34:42;;;;;;;1.52;0.60;;;;;;;;;;5062007;28;20070;-70
2021/08/17 00:37:08;;;;;;;2.67;0.60;;;;;;;;;;5060345;28;20036;-68
2021/08/17 00:39:37;;;;;;;2.08;0.75;;;;;;;;;;5041084;28;20056;-70
2021/08/17 00:42:05;;;;;;;1.67;0.65;;;;;;;;;;5052490;28;20040;-70
2021/08/17 00:44:33;;;;;;;2.03;0.70;;;;;;;;;;5052909;28;20052;-70
2021/08/17 00:46:59;;;;;;;2.08;0.60;;;;;;;;;;5047944;28;20566;-70
2021/08/17 00:49:26;;;;;;;2.53;0.52;;;;;;;;;;5039814;28;20057;-69
2021/08/17 00:51:53;;;;;;;1.80;0.50;;;;;;;;;;5041352;28;20508;-70
2021/08/17 00:54:20;;;;;;;2.53;0.68;;;;;;;;;;5036977;28;20061;-71
2021/08/17 00:56:47;;;;;;;2.63;0.63;;;;;;;;;;5039901;28;20497;-70
2021/08/17 00:59:14;;;;;;;0.93;0.40;;;;;;;;;;5038120;28;20045;-70
2021/08/17 01:01:40;;;;;;;2.38;0.65;;;;;;;;;;5036686;28;20456;-71
2021/08/17 01:04:08;;;;;;;2.13;0.60;;;;;;;;;;5052593;28;20464;-70
2021/08/17 01:06:35;;;;;;;1.65;0.60;;;;;;;;;;5048865;28;20132;-70
2021/08/17 01:09:01;;;;;;;1.77;0.65;;;;;;;;;;5043944;28;20618;-70
2021/08/17 01:11:28;;;;;;;1.80;0.70;;;;;;;;;;5056091;28;20067;-71
2021/08/17 01:13:54;;;;;;;1.65;0.60;;;;;;;;;;5049643;28;20056;-71
2021/08/17 01:16:21;;;;;;;1.27;0.73;;;;;;;;;;5051977;28;20053;-70
2021/08/17 01:18:48;;;;;;;1.88;0.60;;;;;;;;;;5045203;28;20068;-70
2021/08/17 01:21:15;;;;;;;1.48;0.60;;;;;;;;;;5045834;28;20061;-70
2021/08/17 01:23:41;;;;;;;1.20;0.60;;;;;;;;;;5043545;28;20068;-71
2021/08/17 01:26:08;;;;;;;2.85;0.80;;;;;;;;;;5044852;28;20069;-70
2021/08/17 01:28:34;;;;;;;1.00;0.32;;;;;;;;;;5047105;28;20084;-71
2021/08/17 01:31:02;;;;;;;1.40;0.50;;;;;;;;;;5042149;28;20049;-71
2021/08/17 01:33:28;;;;;;;2.92;0.50;;;;;;;;;;5051218;28;20068;-70
2021/08/17 01:35:55;;;;;;;1.13;0.50;;;;;;;;;;5045466;28;20461;-70
2021/08/17 01:38:21;;;;;;;1.30;0.63;;;;;;;;;;5052587;28;20068;-70
2021/08/17 01:40:48;;;;;;;1.50;0.50;;;;;;;;;;5048330;28;20068;-70
2021/08/17 01:43:14;;;;;;;1.58;0.43;;;;;;;;;;5041998;28;20068;-68
2021/08/17 01:45:41;;;;;;;1.50;0.50;;;;;;;;;;5050486;28;20061;-69
2021/08/17 01:48:09;;;;;;;2.25;0.75;;;;;;;;;;5040688;28;20079;-69
2021/08/17 01:50:35;;;;;;;1.58;0.57;;;;;;;;;;5037921;28;20056;-69
2021/08/17 01:53:02;;;;;;;2.35;0.45;;;;;;;;;;5040439;28;20060;-69
2021/08/17 01:55:28;;;;;;;0.85;0.47;;;;;;;;;;5038180;28;20483;-69
2021/08/17 01:57:55;;;;;;;1.83;0.50;;;;;;;;;;5038508;28;21678;-69
2021/08/17 02:00:21;;;;;;;1.90;0.50;;;;;;;;;;5038503;28;20579;-69
2021/08/17 02:02:47;;;;;;;2.50;0.90;;;;;;;;;;5035144;28;20057;-69
2021/08/17 02:05:15;;;;;;;1.52;0.55;;;;;;;;;;5049976;28;20060;-69
2021/08/17 02:07:41;;;;;;;2.00;0.63;;;;;;;;;;5041725;28;20068;-69
2021/08/17 02:10:08;;;;;;;1.90;0.70;;;;;;;;;;5041875;28;20056;-69
2021/08/17 02:12:35;;;;;;;1.55;0.60;;;;;;;;;;5041804;28;20067;-70
2021/08/17 02:15:01;;;;;;;1.40;0.73;;;;;;;;;;5042112;28;20472;-69
2021/08/17 02:17:28;;;;;;;1.33;0.35;;;;;;;;;;5050122;28;20057;-69
2021/08/17 02:19:54;;;;;;;0.77;0.40;;;;;;;;;;5034552;28;20105;-69
2021/08/17 02:22:22;;;;;;;1.98;0.55;;;;;;;;;;5041525;28;20033;-69
2021/08/17 02:24:48;;;;;;;0.95;0.50;;;;;;;;;;5046940;28;20133;-70
2021/08/17 02:27:14;;;;;;;1.20;0.60;;;;;;;;;;5042803;28;20037;-70
2021/08/17 02:29:41;;;;;;;1.10;0.50;;;;;;;;;;5050942;28;20057;-70
2021/08/17 02:32:07;;;;;;;1.38;0.60;;;;;;;;;;5049875;28;20142;-70
2021/08/17 02:34:34;;;;;;;1.55;0.47;;;;;;;;;;5059438;28;20056;-70
2021/08/17 02:37:00;;;;;;;0.82;0.45;;;;;;;;;;5045882;28;20062;-70
2021/08/17 02:39:26;;;;;;;1.27;0.50;;;;;;;;;;5049689;28;20076;-70
2021/08/17 02:41:53;;;;;;;1.98;0.45;;;;;;;;;;5042852;28;20049;-70
2021/08/17 02:44:19;;;;;;;0.93;0.50;;;;;;;;;;5040043;28;20057;-70
2021/08/17 02:46:46;;;;;;;2.00;0.60;;;;;;;;;;5051678;28;20122;-70
2021/08/17 02:49:12;;;;;;;1.20;0.50;;;;;;;;;;5054737;28;20433;-70
2021/08/17 02:51:39;;;;;;;2.25;1.02;;;;;;;;;;5037945;28;20116;-71
2021/08/17 02:54:05;;;;;;;1.63;0.50;;;;;;;;;;5037161;28;20061;-70
2021/08/17 02:56:32;;;;;;;0.75;0.50;;;;;;;;;;5042473;28;20459;-70
2021/08/17 02:58:58;;;;;;;1.00;0.43;;;;;;;;;;5045211;28;20102;-70
2021/08/17 03:01:24;;;;;;;2.35;0.63;;;;;;;;;;5042138;28;20130;-70
2021/08/17 03:03:51;;;;;;;1.27;0.60;;;;;;;;;;5048525;28;20462;-70
2021/08/17 03:06:17;;;;;;;2.03;0.60;;;;;;;;;;5047923;28;20048;-70
2021/08/17 03:08:43;;;;;;;1.63;0.57;;;;;;;;;;5049434;28;20072;-70
2021/08/17 03:11:10;;;;;;;1.15;0.57;;;;;;;;;;5045506;28;20064;-69
2021/08/17 03:13:36;;;;;;;0.80;0.50;;;;;;;;;;5042803;28;20518;-69
2021/08/17 03:16:03;;;;;;;2.63;0.50;;;;;;;;;;5050406;28;20064;-69
2021/08/17 03:18:29;;;;;;;1.02;0.50;;;;;;;;;;5041408;28;20434;-70
2021/08/17 03:20:58;;;;;;;1.33;0.40;;;;;;;;;;5055301;28;20045;-71
2021/08/17 03:23:27;;;;;;;0.63;0.40;;;;;;;;;;5067815;28;20561;-70
2021/08/17 03:25:56;;;;;;;0.98;0.40;;;;;;;;;;5046722;28;20084;-70
2021/08/17 03:28:23;;;;;;;1.10;0.50;;;;;;;;;;5049895;28;20159;-70
2021/08/17 03:30:49;;;;;;;2.38;0.50;;;;;;;;;;5041526;28;20052;-70
2021/08/17 03:33:16;;;;;;;1.83;0.63;;;;;;;;;;5042770;28;20668;-71
2021/08/17 03:35:42;;;;;;;2.13;0.70;;;;;;;;;;5045892;28;20080;-70
2021/08/17 03:38:09;;;;;;;1.58;0.50;;;;;;;;;;5065543;28;20103;-70
2021/08/17 03:40:35;;;;;;;1.83;0.60;;;;;;;;;;5045118;28;20069;-71
2021/08/17 03:43:01;;;;;;;2.20;0.70;;;;;;;;;;5066496;28;20059;-69
2021/08/17 03:45:28;;;;;;;1.10;0.47;;;;;;;;;;5081822;28;20215;-68
2021/08/17 03:47:54;;;;;;;0.98;0.47;;;;;;;;;;5042940;28;20436;-71
2021/08/17 03:50:21;;;;;;;0.85;0.40;;;;;;;;;;5049930;28;20099;-69
2021/08/17 03:52:47;;;;;;;1.13;0.60;;;;;;;;;;5034477;28;20053;-70
2021/08/17 03:55:14;;;;;;;1.17;0.52;;;;;;;;;;5035125;28;20065;-70
2021/08/17 03:57:40;;;;;;;1.65;0.52;;;;;;;;;;5041775;28;20528;-70
2021/08/17 04:00:09;;;;;;;2.53;0.70;;;;;;;;;;5042573;28;20079;-70
2021/08/17 04:02:35;;;;;;;2.45;0.57;;;;;;;;;;5043233;28;20056;-71
2021/08/17 04:05:02;;;;;;;1.75;0.40;;;;;;;;;;5043499;28;20600;-69
2021/08/17 04:07:28;;;;;;;1.00;0.50;;;;;;;;;;5051419;28;20122;-70
2021/08/17 04:09:57;;;;;;;0.93;0.43;;;;;;;;;;5046041;28;20519;-70
2021/08/17 04:12:23;;;;;;;1.42;0.40;;;;;;;;;;5051256;28;20112;-69
2021/08/17 04:14:49;;;;;;;2.50;0.55;;;;;;;;;;5040052;28;21987;-70
2021/08/17 04:17:16;;;;;;;1.08;0.40;;;;;;;;;;5038494;28;20068;-70
2021/08/17 04:19:43;;;;;;;1.20;0.52;;;;;;;;;;5048242;28;20092;-70
2021/08/17 04:22:10;;;;;;;1.77;0.50;;;;;;;;;;5046232;28;20117;-70
2021/08/17 04:24:37;;;;;;;0.88;0.40;;;;;;;;;;5053646;28;20060;-70
2021/08/17 04:27:03;;;;;;;1.60;0.50;;;;;;;;;;5045320;28;20068;-69
2021/08/17 04:29:30;;;;;;;2.55;0.50;;;;;;;;;;5034682;28;20448;-69
2021/08/17 04:31:57;;;;;;;1.27;0.47;;;;;;;;;;5030557;28;20348;-69
2021/08/17 04:34:23;;;;;;;2.25;0.73;;;;;;;;;;5043401;28;20064;-69
2021/08/17 04:36:50;;;;;;;1.63;0.70;;;;;;;;;;5041580;28;20512;-70
2021/08/17 04:39:16;;;;;;;1.35;0.60;;;;;;;;;;5043016;28;20519;-69
2021/08/17 04:41:43;;;;;;;1.25;0.68;;;;;;;;;;5031771;28;20072;-69
2021/08/17 04:44:09;;;;;;;2.20;0.90;;;;;;;;;;5039740;28;20029;-69
2021/08/17 04:46:36;;;;;;;2.55;0.80;;;;;;;;;;5033348;28;20045;-71
2021/08/17 04:49:02;;;;;;;7.90;1.40;;;;;;;;;;5039128;28;20064;-70
2021/08/17 04:51:29;;;;;;;2.47;0.80;;;;;;;;;;5042050;28;20417;-69
2021/08/17 04:53:55;;;;;;;3.20;0.80;;;;;;;;;;5045008;28;20072;-70
2021/08/17 04:56:21;;;;;;;2.50;0.70;;;;;;;;;;5038525;28;20083;-70
2021/08/17 04:58:48;;;;;;;2.47;0.90;;;;;;;;;;5036559;28;20084;-68
2021/08/17 05:01:14;;;;;;;2.72;0.75;;;;;;;;;;5049161;28;20068;-69
2021/08/17 05:03:41;;;;;;;3.38;0.70;;;;;;;;;;5056431;28;20064;-69
2021/08/17 05:06:07;;;;;;;3.92;0.77;;;;;;;;;;5039548;28;20126;-70
2021/08/17 05:08:33;;;;;;;2.03;0.85;;;;;;;;;;5066120;28;20106;-70
2021/08/17 05:11:00;;;;;;;5.47;0.90;;;;;;;;;;5076059;28;20062;-70
2021/08/17 05:13:26;;;;;;;3.10;0.70;;;;;;;;;;5038404;28;20072;-69
2021/08/17 05:15:53;;;;;;;4.43;0.93;;;;;;;;;;5035063;28;20061;-68
2021/08/17 05:18:19;;;;;;;4.47;0.90;;;;;;;;;;5037818;28;20118;-69
2021/08/17 05:20:46;;;;;;;2.67;0.77;;;;;;;;;;5033266;28;20056;-70
2021/08/17 05:23:12;;;;;;;4.43;1.00;;;;;;;;;;5038715;28;20053;-71
2021/08/17 05:25:38;;;;;;;6.15;1.02;;;;;;;;;;5034757;28;20113;-70
2021/08/17 05:28:05;;;;;;;4.88;1.00;;;;;;;;;;5063261;28;20064;-71
2021/08/17 05:30:32;;;;;;;3.45;0.80;;;;;;;;;;5040044;28;20041;-70
2021/08/17 05:32:58;;;;;;;3.83;0.90;;;;;;;;;;5034155;28;20061;-70
2021/08/17 05:35:25;;;;;;;1.95;0.70;;;;;;;;;;5042517;28;20108;-71
2021/08/17 05:37:51;;;;;;;3.08;1.10;;;;;;;;;;5038429;28;20485;-70
2021/08/17 05:40:18;;;;;;;3.00;0.80;;;;;;;;;;5039961;28;20065;-71
2021/08/17 05:42:44;;;;;;;5.28;0.98;;;;;;;;;;5046964;28;20492;-71
2021/08/17 05:45:11;;;;;;;4.65;0.88;;;;;;;;;;5049603;28;20493;-70
2021/08/17 05:47:42;;;;;;;4.60;0.90;;;;;;;;;;5049058;28;20080;-70
2021/08/17 05:50:08;;;;;;;2.47;0.88;;;;;;;;;;5031708;28;20575;-69
2021/08/17 05:52:37;;;;;;;2.42;0.88;;;;;;;;;;5044767;28;20110;-69
2021/08/17 05:55:04;;;;;;;2.75;0.95;;;;;;;;;;5053862;28;20154;-69
2021/08/17 05:57:31;;;;;;;4.30;1.17;;;;;;;;;;5041262;28;20555;-72
2021/08/17 05:59:57;;;;;;;4.60;0.80;;;;;;;;;;5046722;28;20084;-69
2021/08/17 06:02:23;;;;;;;2.53;0.82;;;;;;;;;;5053855;28;20068;-71
2021/08/17 06:04:50;;;;;;;2.90;0.73;;;;;;;;;;5036887;28;20072;-69
2021/08/17 06:07:19;;;;;;;2.58;1.08;;;;;;;;;;5044892;28;20057;-70
2021/08/17 06:09:45;;;;;;;4.18;0.80;;;;;;;;;;5038427;28;20063;-69
2021/08/17 06:12:12;;;;;;;2.72;0.80;;;;;;;;;;5050826;28;20632;-70
2021/08/17 06:14:38;;;;;;;2.50;0.80;;;;;;;;;;5033067;28;20448;-70
2021/08/17 06:17:05;;;;;;;2.42;1.00;;;;;;;;;;5057160;28;20064;-69
2021/08/17 06:19:32;;;;;;;2.17;0.68;;;;;;;;;;5052822;28;20061;-70
2021/08/17 06:21:58;;;;;;;2.30;0.52;;;;;;;;;;5043035;28;20083;-69
2021/08/17 06:24:24;;;;;;;2.42;0.60;;;;;;;;;;5039010;28;20048;-69
2021/08/17 06:26:51;;;;;;;3.55;0.80;;;;;;;;;;5032755;28;20060;-70
2021/08/17 06:29:17;;;;;;;3.28;0.70;;;;;;;;;;5055712;28;20112;-69
2021/08/17 06:31:44;;;;;;;3.85;0.90;;;;;;;;;;5041923;28;20067;-70
2021/08/17 06:34:10;;;;;;;1.40;0.60;;;;;;;;;;5063100;28;20052;-69
2021/08/17 06:36:37;;;;;;;4.00;1.02;;;;;;;;;;5039645;28;20064;-70
2021/08/17 06:39:06;;;;;;;3.88;0.80;;;;;;;;;;5040955;28;20064;-69
2021/08/17 06:41:33;;;;;;;1.95;0.60;;;;;;;;;;5031169;28;20061;-69
2021/08/17 06:44:00;;;;;;;3.40;0.90;;;;;;;;;;5075835;28;20056;-68
2021/08/17 06:46:27;;;;;;;2.38;0.60;;;;;;;;;;5031883;28;20068;-69
2021/08/17 06:48:54;;;;;;;1.75;0.73;;;;;;;;;;5028419;28;20049;-69
2021/08/17 06:51:20;;;;;;;1.42;0.70;;;;;;;;;;5025620;28;20041;-69
2021/08/17 06:53:47;;;;;;;1.38;0.50;;;;;;;;;;5050609;28;20040;-68
2021/08/17 06:56:14;;;;;;;1.65;0.60;;;;;;;;;;5056261;28;20674;-69
2021/08/17 06:58:40;;;;;;;1.55;0.70;;;;;;;;;;5027448;28;20095;-69
2021/08/17 07:01:07;;;;;;;1.65;0.82;;;;;;;;;;5056816;28;20041;-69
2021/08/17 07:03:34;;;;;;;2.70;0.82;;;;;;;;;;5063615;28;20066;-69
2021/08/17 07:06:03;;;;;;;1.98;0.70;;;;;;;;;;5039091;28;20107;-69
2021/08/17 07:08:29;;;;;;;4.93;0.90;;;;;;;;;;5036646;28;20110;-70
2021/08/17 07:10:58;;;;;;;2.03;0.80;;;;;;;;;;5020085;28;20047;-70
2021/08/17 07:13:25;;;;;;;1.05;0.52;;;;;;;;;;5057387;28;20045;-69
2021/08/17 07:15:52;;;;;;;4.35;0.75;;;;;;;;;;5041279;28;20053;-70
2021/08/17 07:18:19;;;;;;;1.80;0.80;;;;;;;;;;5046442;28;20064;-69
2021/08/17 07:20:45;;;;;;;3.60;1.00;;;;;;;;;;5032086;28;20128;-69
2021/08/17 07:23:11;;;;;;;3.13;0.70;;;;;;;;;;5042100;28;20101;-69
2021/08/17 07:25:38;;;;;;;3.28;0.80;;;;;;;;;;5042638;28;20041;-70
2021/08/17 07:28:05;;;;;;;2.25;0.80;;;;;;;;;;5056092;28;20566;-70
2021/08/17 07:30:32;;;;;;;2.63;0.73;;;;;;;;;;5047676;28;20065;-70
2021/08/17 07:32:59;;;;;;;2.45;0.85;;;;;;;;;;5046304;28;20104;-69
2021/08/17 07:35:25;;;;;;;1.60;0.80;;;;;;;;;;5036426;28;20053;-70
2021/08/17 07:37:51;;;;;;;1.55;0.60;;;;;;;;;;5037824;28;20547;-69
2021/08/17 07:40:18;;;;;;;3.00;0.93;;;;;;;;;;5032879;28;20048;-70
2021/08/17 07:42:45;;;;;;;1.98;0.68;;;;;;;;;;5038276;28;20065;-70
2021/08/17 07:45:12;;;;;;;1.55;0.60;;;;;;;;;;5050668;28;20064;-70
2021/08/17 07:47:39;;;;;;;4.28;0.90;;;;;;;;;;5042255;28;20084;-70
2021/08/17 07:50:06;;;;;;;2.92;0.70;;;;;;;;;;5039700;28;20069;-70
2021/08/17 07:52:35;;;;;;;2.25;0.65;;;;;;;;;;5036205;28;20675;-71
2021/08/17 07:55:02;;;;;;;1.65;0.70;;;;;;;;;;5032281;28;20057;-70
2021/08/17 07:57:29;;;;;;;1.88;0.80;;;;;;;;;;5033573;28;20456;-69
2021/08/17 07:59:57;;;;;;;2.00;0.90;;;;;;;;;;5048597;28;20087;-69
2021/08/17 08:02:23;;;;;;;1.13;0.70;;;;;;;;;;5053128;28;20052;-70
2021/08/17 08:04:50;;;;;;;2.15;0.60;;;;;;;;;;5050945;28;20040;-69
2021/08/17 08:07:16;;;;;;;2.47;0.70;;;;;;;;;;5043963;28;20061;-70
2021/08/17 08:09:43;;;;;;;2.63;0.80;;;;;;;;;;5046096;28;20065;-70
2021/08/17 08:12:13;;;;;;;1.65;0.68;;;;;;;;;;5034707;28;20038;-69
2021/08/17 08:14:39;;;;;;;2.40;0.60;;;;;;;;;;5039129;28;20057;-70
2021/08/17 08:17:06;;;;;;;2.25;0.90;;;;;;;;;;5039294;28;20064;-70
2021/08/17 08:19:32;;;;;;;2.08;0.68;;;;;;;;;;5057597;28;20029;-70
2021/08/17 08:21:59;;;;;;;2.22;0.70;;;;;;;;;;5034574;28;20488;-70
2021/08/17 08:24:25;;;;;;;2.35;0.90;;;;;;;;;;5035474;28;20061;-69
2021/08/17 08:26:52;;;;;;;1.67;0.50;;;;;;;;;;5044063;28;20061;-69
2021/08/17 08:29:18;;;;;;;2.13;0.70;;;;;;;;;;5041198;28;20041;-69
2021/08/17 08:31:45;;;;;;;2.20;0.60;;;;;;;;;;5037211;28;20072;-70
2021/08/17 08:34:11;;;;;;;1.92;0.95;;;;;;;;;;5046488;28;20507;-70
2021/08/17 08:36:37;;;;;;;2.40;0.82;;;;;;;;;;5052309;28;20052;-71
2021/08/17 08:39:04;;;;;;;2.28;0.60;;;;;;;;;;5038966;28;20041;-69
2021/08/17 08:41:30;;;;;;;2.88;0.60;;;;;;;;;;5045045;28;20597;-69
2021/08/17 08:44:00;;;;;;;2.97;0.95;;;;;;;;;;5052067;28;21411;-70
2021/08/17 08:46:29;;;;;;;2.97;0.80;;;;;;;;;;5047888;28;20499;-69
2021/08/17 08:48:55;;;;;;;1.75;0.85;;;;;;;;;;5045118;28;20048;-69
2021/08/17 08:51:22;;;;;;;1.00;0.47;;;;;;;;;;5042218;28;20095;-70
2021/08/17 08:53:49;;;;;;;1.70;0.60;;;;;;;;;;5048448;28;20060;-70
2021/08/17 08:56:16;;;;;;;2.13;0.80;;;;;;;;;;5038962;28;20455;-70
2021/08/17 08:58:42;;;;;;;2.75;0.95;;;;;;;;;;5043329;28;20520;-70
2021/08/17 09:01:10;;;;;;;1.58;0.65;;;;;;;;;;5053058;28;20577;-70
2021/08/17 09:03:47;;;;;;;1.65;0.60;;;;;;;;;;5049737;28;20071;-70
2021/08/17 09:06:18;;;;;;;2.63;0.90;;;;;;;;;;5048762;28;20060;-70
2021/08/17 09:08:44;;;;;;;3.17;0.70;;;;;;;;;;5045621;28;20295;-70
2021/08/17 09:11:18;;;;;;;2.08;0.80;;;;;;;;;;5045286;28;20057;-70
2021/08/17 09:13:44;;;;;;;3.17;0.70;;;;;;;;;;5042986;28;20064;-70
2021/08/17 09:16:31;;;;;;;2.13;0.70;;;;;;;;;;5060781;28;20064;-70
2021/08/17 09:18:57;;;;;;;1.52;0.60;;;;;;;;;;5056996;28;21629;-69
2021/08/17 09:21:53;;;;;;;3.53;0.63;;;;;;;;;;5039908;28;20521;-70
2021/08/17 09:24:30;;;;;;;2.30;0.55;;;;;;;;;;5031493;28;21983;-70
2021/08/17 09:27:01;;;;;;;5.30;0.75;;;;;;;;;;5035079;28;20060;-70
2021/08/17 09:29:29;;;;;;;1.75;0.70;;;;;;;;;;5030135;28;20060;-70
2021/08/17 09:31:56;;;;;;;2.33;0.60;;;;;;;;;;5048591;28;20033;-70
2021/08/17 09:34:28;;;;;;;1.60;0.70;;;;;;;;;;5062646;28;20060;-69
2021/08/17 09:36:55;;;;;;;5.28;0.70;;;;;;;;;;5049807;28;20152;-71
2021/08/17 09:39:28;;;;;;;2.55;0.68;;;;;;;;;;5043722;28;20052;-69
2021/08/17 09:42:15;;;;;;;1.63;0.50;;;;;;;;;;5042414;28;20065;-70
2021/08/17 09:44:42;;;;;;;1.25;0.52;;;;;;;;;;5048247;28;20063;-69
2021/08/17 09:47:08;;;;;;;3.50;0.80;;;;;;;;;;5044881;28;20065;-69
2021/08/17 09:49:35;;;;;;;1.67;0.70;;;;;;;;;;5053556;28;20558;-69
2021/08/17 09:52:15;;;;;;;3.03;0.70;;;;;;;;;;5041558;28;20053;-69
2021/08/17 09:54:42;;;;;;;1.85;0.75;;;;;;;;;;5046680;28;20107;-69
2021/08/17 09:57:09;;;;;;;1.38;0.52;;;;;;;;;;5042302;28;20057;-69
2021/08/17 09:59:37;;;;;;;2.22;0.60;;;;;;;;;;5032317;28;20073;-69
2021/08/17 10:02:04;;;;;;;1.73;0.60;;;;;;;;;;5041116;28;20064;-69
2021/08/17 10:04:31;;;;;;;1.92;0.50;;;;;;;;;;5051275;28;20065;-68
2021/08/17 10:06:58;;;;;;;2.53;0.50;;;;;;;;;;5054750;28;20068;-69
2021/08/17 10:09:25;;;;;;;1.95;0.65;;;;;;;;;;5038306;28;20064;-69
2021/08/17 10:11:52;;;;;;;3.47;0.93;;;;;;;;;;5038598;28;20064;-69
2021/08/17 10:14:18;;;;;;;1.48;0.52;;;;;;;;;;5044528;28;20064;-69
2021/08/17 10:16:45;;;;;;;1.42;0.60;;;;;;;;;;5040654;28;20045;-70
2021/08/17 10:19:12;;;;;;;2.72;0.70;;;;;;;;;;5046070;28;20119;-70
2021/08/17 10:21:40;;;;;;;2.30;0.52;;;;;;;;;;5037087;28;20076;-71
2021/08/17 10:24:25;;;;;;;2.42;0.70;;;;;;;;;;5044704;28;20048;-70
2021/08/17 10:27:11;;;;;;;4.68;0.70;;;;;;;;;;5041666;28;20048;-70
2021/08/17 10:29:51;;;;;;;0.68;0.47;;;;;;;;;;5031093;28;20124;-70
2021/08/17 10:32:37;;;;;;;1.80;0.70;;;;;;;;;;5035430;28;20435;-69
2021/08/17 10:35:03;;;;;;;1.95;0.70;;;;;;;;;;5039065;28;20330;-69
2021/08/17 10:37:30;;;;;;;2.45;0.95;;;;;;;;;;5046586;28;20056;-69
2021/08/17 10:39:56;;;;;;;3.85;0.73;;;;;;;;;;5038093;28;20114;-69
2021/08/17 10:42:24;;;;;;;2.70;0.60;;;;;;;;;;5043623;28;20064;-68
2021/08/17 10:44:51;;;;;;;1.48;0.80;;;;;;;;;;5056885;28;20056;-70
2021/08/17 10:47:33;;;;;;;3.30;0.77;;;;;;;;;;5059577;28;20056;-69
2021/08/17 10:50:00;;;;;;;3.15;0.73;;;;;;;;;;5049114;28;20442;-70
2021/08/17 10:52:26;;;;;;;2.40;0.80;;;;;;;;;;5048013;28;20483;-69
2021/08/17 10:55:12;;;;;;;3.13;0.75;;;;;;;;;;5049452;28;20718;-70
2021/08/17 10:57:56;;;;;;;3.17;0.95;;;;;;;;;;5046773;28;20141;-70
2021/08/17 11:00:41;;;;;;;2.45;0.60;;;;;;;;;;5052734;28;20675;-70
2021/08/17 11:03:07;;;;;;;2.65;0.80;;;;;;;;;;5055332;28;20428;-70
2021/08/17 11:05:50;;;;;;;3.80;0.80;;;;;;;;;;5043443;28;20086;-69
2021/08/17 11:08:31;;;;;;;2.45;0.85;;;;;;;;;;5040208;28;20056;-69
2021/08/17 11:10:58;;;;;;;;;;;;;;;;;;5041338;28;20156;-69
2021/08/17 11:13:26;;;;;;;3.28;1.27;;;;;;;;;;5042936;28;19952;-69
2021/08/17 11:16:08;;;;;;;2.50;0.80;;;;;;;;;;5046466;28;23080;-69
2021/08/17 11:18:51;;;;;;;2.63;0.75;;;;;;;;;;5051800;28;20052;-69
2021/08/17 11:21:30;;;;;;;3.55;1.08;;;;;;;;;;5055470;28;20044;-69
2021/08/17 11:24:07;;;;;;;3.53;1.00;;;;;;;;;;5045026;28;20202;-69
2021/08/17 11:26:33;;;;;;;5.55;1.10;;;;;;;;;;5045490;28;20121;-70
2021/08/17 11:29:00;;;;;;;4.72;1.30;;;;;;;;;;5042059;28;20073;-69
2021/08/17 11:31:26;;;;;;;1.92;0.82;;;;;;;;;;5045656;28;20068;-70
2021/08/17 11:34:22;;;;;;;4.18;1.00;;;;;;;;;;5038994;28;20072;-69
2021/08/17 11:36:50;;;;;;;2.85;0.95;;;;;;;;;;5036085;28;20068;-70
2021/08/17 11:39:37;;;;;;;4.13;1.00;;;;;;;;;;5033540;28;20108;-69
2021/08/17 11:42:15;;;;;;;5.50;1.23;;;;;;;;;;5052621;28;21406;-70
2021/08/17 11:44:42;;;;;;;4.30;1.10;;;;;;;;;;5033389;28;20061;-69
2021/08/17 11:47:19;;;;;;;3.70;1.20;;;;;;;;;;5040551;28;20893;-69
2021/08/17 11:49:46;;;;;;;2.63;1.15;;;;;;;;;;5056948;28;20440;-70
2021/08/17 11:52:22;;;;;;;4.20;1.35;;;;;;;;;;5057252;28;20107;-69
2021/08/17 11:54:49;;;;;;;6.15;1.30;;;;;;;;;;5056229;28;20106;-69
2021/08/17 11:57:28;;;;;;;3.72;1.20;;;;;;;;;;5041822;28;20056;-69
2021/08/17 11:59:54;;;;;;;3.50;1.17;;;;;;;;;;5038960;28;20836;-69
2021/08/17 12:02:26;;;;;;;3.88;1.20;;;;;;;;;;5042691;28;20067;-70
2021/08/17 12:04:52;;;;;;;;;;;;;;;;;;5047673;28;20131;-69
2021/08/17 12:07:19;;;;;;;5.63;1.60;;;;;;;;;;5047127;28;19908;-70
2021/08/17 12:09:46;;;;;;;2.83;1.10;;;;;;;;;;5041956;28;20057;-70
2021/08/17 12:12:13;;;;;;;4.70;1.23;;;;;;;;;;5038345;28;20061;-70
2021/08/17 12:14:40;;;;;;;4.22;1.40;;;;;;;;;;5039781;28;20060;-70
2021/08/17 12:17:08;;;;;;;4.63;1.48;;;;;;;;;;5057062;28;20056;-70
2021/08/17 12:19:35;;;;;;;3.33;1.17;;;;;;;;;;5058647;28;20061;-70
2021/08/17 12:22:02;;;;;;;4.97;1.58;;;;;;;;;;5049778;28;20075;-70
2021/08/17 12:24:33;;;;;;;4.95;1.25;;;;;;;;;;5038530;28;20064;-70
2021/08/17 12:27:04;;;;;;;4.85;1.20;;;;;;;;;;5030229;28;20555;-69
2021/08/17 12:29:43;;;;;;;6.25;1.50;;;;;;;;;;5047682;28;20061;-70
2021/08/17 12:32:19;;;;;;;5.60;1.30;;;;;;;;;;5056900;28;20090;-70
2021/08/17 12:34:48;;;;;;;8.10;1.42;;;;;;;;;;5036009;28;20060;-69
2021/08/17 12:37:27;;;;;;;5.00;1.20;;;;;;;;;;5052073;28;20133;-69
2021/08/17 12:39:55;;;;;;;4.55;1.10;;;;;;;;;;5040906;28;20064;-69
2021/08/17 12:42:21;;;;;;;5.65;1.40;;;;;;;;;;5037163;28;20555;-70
2021/08/17 12:44:49;;;;;;;4.80;1.27;;;;;;;;;;5030596;28;20495;-70
2021/08/17 12:47:18;;;;;;;6.03;1.30;;;;;;;;;;5055455;28;20052;-73
2021/08/17 12:49:45;;;;;;;3.38;1.30;;;;;;;;;;5042013;28;20110;-69
2021/08/17 12:52:20;;;;;;;5.03;1.55;;;;;;;;;;5036430;28;20041;-70
2021/08/17 12:54:47;;;;;;;10.63;1.58;;;;;;;;;;5037033;28;20068;-70
2021/08/17 12:57:20;;;;;;;6.07;1.23;;;;;;;;;;5036825;28;20029;-69
2021/08/17 12:59:48;;;;;;;4.18;1.20;;;;;;;;;;5039278;28;20060;-69
2021/08/17 13:02:14;;;;;;;4.47;1.25;;;;;;;;;;5042721;28;20073;-70
2021/08/17 13:04:40;;;;;;;6.88;1.40;;;;;;;;;;5040473;28;20091;-71
2021/08/17 13:07:07;;;;;;;6.13;1.92;;;;;;;;;;5042935;28;20069;-70
2021/08/17 13:09:34;;;;;;;5.90;1.20;;;;;;;;;;5036041;28;20057;-70
2021/08/17 13:12:00;;;;;;;4.75;1.50;;;;;;;;;;5044763;28;20033;-71
2021/08/17 13:14:27;;;;;;;6.03;1.35;;;;;;;;;;5056616;28;20107;-70
2021/08/17 13:16:53;;;;;;;7.50;1.50;;;;;;;;;;5036169;28;20535;-71
2021/08/17 13:19:20;;;;;;;4.57;1.27;;;;;;;;;;5034560;28;20094;-71
2021/08/17 13:21:46;;;;;;;6.93;1.30;;;;;;;;;;5027996;28;20064;-72
2021/08/17 13:24:13;;;;;;;6.72;1.10;;;;;;;;;;5052994;28;20053;-71
2021/08/17 13:26:39;;;;;;;4.60;1.33;;;;;;;;;;5042130;28;20132;-72
2021/08/17 13:29:06;;;;;;;5.18;1.38;;;;;;;;;;5036665;28;20068;-70
2021/08/17 13:31:32;;;;;;;4.32;1.52;;;;;;;;;;5042457;28;20064;-70
2021/08/17 13:33:59;;;;;;;9.88;1.38;;;;;;;;;;5061495;28;20121;-71
2021/08/17 13:36:25;;;;;;;4.75;1.48;;;;;;;;;;5073948;28;20045;-70
2021/08/17 13:38:52;;;;;;;5.80;1.30;;;;;;;;;;5044677;28;20056;-70
2021/08/17 13:41:18;;;;;;;6.43;1.58;;;;;;;;;;5047432;28;20098;-70
2021/08/17 13:43:44;;;;;;;5.47;1.08;;;;;;;;;;5058475;28;20520;-70
2021/08/17 13:46:11;;;;;;;4.45;1.70;;;;;;;;;;5045050;28;20060;-70
2021/08/17 13:48:37;;;;;;;4.95;1.10;;;;;;;;;;5063217;28;20104;-70
2021/08/17 13:51:04;;;;;;;4.07;1.30;;;;;;;;;;5037742;28;20073;-71
2021/08/17 13:53:30;;;;;;;4.93;1.30;;;;;;;;;;5029524;28;20088;-70
2021/08/17 13:55:57;;;;;;;5.07;1.30;;;;;;;;;;5036096;28;20523;-70
2021/08/17 13:58:23;;;;;;;6.07;1.63;;;;;;;;;;5040295;28;20053;-71
2021/08/17 14:00:50;;;;;;;4.80;1.42;;;;;;;;;;5040367;28;20120;-70
2021/08/17 14:03:16;;;;;;;3.60;1.00;;;;;;;;;;5076583;28;20045;-70
2021/08/17 14:05:48;;;;;;;6.13;1.30;;;;;;;;;;5042024;28;20064;-70
2021/08/17 14:08:15;;;;;;;3.83;1.33;;;;;;;;;;5043130;28;20776;-70
2021/08/17 14:10:41;;;;;;;4.93;1.10;;;;;;;;;;5044079;28;20076;-72
2021/08/17 14:13:07;;;;;;;3.60;1.10;;;;;;;;;;5051313;28;20073;-72
2021/08/17 14:15:34;;;;;;;5.18;1.10;;;;;;;;;;5042538;28;20084;-72
2021/08/17 14:18:00;;;;;;;3.78;1.05;;;;;;;;;;5047256;28;20064;-71
2021/08/17 14:20:27;;;;;;;2.28;1.02;;;;;;;;;;5040340;28;20056;-70
2021/08/17 14:22:53;;;;;;;4.10;1.38;;;;;;;;;;5050461;28;20084;-69
2021/08/17 14:25:21;;;;;;;4.13;1.10;;;;;;;;;;5055135;28;20041;-70
2021/08/17 14:27:48;;;;;;;4.40;1.30;;;;;;;;;;5048250;28;20488;-68
2021/08/17 14:30:14;;;;;;;5.47;1.38;;;;;;;;;;5044014;28;20059;-69
2021/08/17 14:32:41;;;;;;;3.47;1.20;;;;;;;;;;5039138;28;20063;-70
2021/08/17 14:35:10;;;;;;;4.22;1.25;;;;;;;;;;5043935;28;20453;-68
2021/08/17 14:37:37;;;;;;;3.30;1.00;;;;;;;;;;5039008;28;20548;-69
2021/08/17 14:40:04;;;;;;;3.08;0.90;;;;;;;;;;5044672;28;20060;-70
2021/08/17 14:42:32;;;;;;;4.35;1.00;;;;;;;;;;5037202;28;20069;-70
2021/08/17 14:44:59;;;;;;;4.25;1.05;;;;;;;;;;5047533;28;22317;-70
2021/08/17 14:47:29;;;;;;;3.33;0.90;;;;;;;;;;5043572;28;20045;-70